sensor_id;sensor_type;location;lat;lon;timestamp;temperature;humidity
48019;DHT22;33786;48.690;9.562;2023-05-10T00:01:13;14.50;99.90
48019;DHT22;33786;48.690;9.562;2023-05-10T00:03:40;14.40;99.90
48019;DHT22;33786;48.690;9.562;2023-05-10T00:06:07;14.40;99.90
48019;DHT22;33786;48.690;9.562;2023-05-10T00:08:33;14.30;99.90
48019;DHT22;33786;48.690;9.562;2023-05-10T00:11:00;14.20;99.90
48019;DHT22;33786;48.690;9.562;2023-05-10T00:13:27;14.20;99.90
48019;DHT22;33786;48.690;9.562;2023-05-10T00:15:53;14.20;99.90
48019;DHT22;33786;48.690;9.562;2023-05-10T00:18:20;14.10;99.90
48019;DHT22;33786;48.690;9.562;2023-05-10T00:20:47;14.10;99.90
48019;DHT22;33786;48.690;9.562;2023-05-10T00:23:15;14.10;99.90
48019;DHT22;33786;48.690;9.562;2023-05-10T00:25:41;14.10;99.90
48019;DHT22;33786;48.690;9.562;2023-05-10T00:28:08;14.00;99.90
48019;DHT22;33786;48.690;9.562;2023-05-10T00:30:35;14.00;99.90
48019;DHT22;33786;48.690;9.562;2023-05-10T00:33:01;14.00;99.90
48019;DHT22;33786;48.690;9.562;2023-05-10T00:35:29;13.90;99.90
48019;DHT22;33786;48.690;9.562;2023-05-10T00:37:56;13.90;99.90
48019;DHT22;33786;48.690;9.562;2023-05-10T00:40:22;13.90;99.90
48019;DHT22;33786;48.690;9.562;2023-05-10T00:42:49;13.80;99.90
48019;DHT22;33786;48.690;9.562;2023-05-10T00:45:16;13.80;99.90
48019;DHT22;33786;48.690;9.562;2023-05-10T00:47:42;13.80;99.90
48019;DHT22;33786;48.690;9.562;2023-05-10T00:50:09;13.70;99.90
48019;DHT22;33786;48.690;9.562;2023-05-10T00:52:36;13.70;99.90
48019;DHT22;33786;48.690;9.562;2023-05-10T00:55:03;13.70;99.90
48019;DHT22;33786;48.690;9.562;2023-05-10T00:57:30;13.70;99.90
48019;DHT22;33786;48.690;9.562;2023-05-10T00:59:57;13.70;99.90
48019;DHT22;33786;48.690;9.562;2023-05-10T01:02:24;13.70;99.90
48019;DHT22;33786;48.690;9.562;2023-05-10T01:04:51;13.70;99.90
48019;DHT22;33786;48.690;9.562;2023-05-10T01:07:18;13.70;99.90
48019;DHT22;33786;48.690;9.562;2023-05-10T01:09:45;13.80;99.90
48019;DHT22;33786;48.690;9.562;2023-05-10T01:12:12;13.80;99.90
48019;DHT22;33786;48.690;9.562;2023-05-10T01:14:38;13.80;99.90
48019;DHT22;33786;48.690;9.562;2023-05-10T01:17:05;13.80;99.90
48019;DHT22;33786;48.690;9.562;2023-05-10T01:19:34;13.80;99.90
48019;DHT22;33786;48.690;9.562;2023-05-10T01:29:47;13.70;99.90
48019;DHT22;33786;48.690;9.562;2023-05-10T01:32:42;13.70;99.90
48019;DHT22;33786;48.690;9.562;2023-05-10T01:37:52;13.80;99.90
48019;DHT22;33786;48.690;9.562;2023-05-10T01:40:26;13.80;99.90
48019;DHT22;33786;48.690;9.562;2023-05-10T01:42:55;13.80;99.90
48019;DHT22;33786;48.690;9.562;2023-05-10T01:45:37;13.70;99.90
48019;DHT22;33786;48.690;9.562;2023-05-10T01:48:09;13.70;99.90
48019;DHT22;33786;48.690;9.562;2023-05-10T01:50:41;13.80;99.90
48019;DHT22;33786;48.690;9.562;2023-05-10T01:53:09;13.80;99.90
48019;DHT22;33786;48.690;9.562;2023-05-10T01:55:45;13.70;99.90
48019;DHT22;33786;48.690;9.562;2023-05-10T01:58:20;13.70;99.90
48019;DHT22;33786;48.690;9.562;2023-05-10T02:00:47;13.80;99.90
48019;DHT22;33786;48.690;9.562;2023-05-10T02:03:14;13.70;99.90
48019;DHT22;33786;48.690;9.562;2023-05-10T02:05:43;13.70;99.90
48019;DHT22;33786;48.690;9.562;2023-05-10T02:08:11;13.80;99.90
48019;DHT22;33786;48.690;9.562;2023-05-10T02:10:40;13.70;99.90
48019;DHT22;33786;48.690;9.562;2023-05-10T02:13:07;13.80;99.90
48019;DHT22;33786;48.690;9.562;2023-05-10T02:15:34;13.80;99.90
48019;DHT22;33786;48.690;9.562;2023-05-10T02:18:01;13.80;99.90
48019;DHT22;33786;48.690;9.562;2023-05-10T02:20:29;13.80;99.90
48019;DHT22;33786;48.690;9.562;2023-05-10T02:22:57;13.80;99.90
48019;DHT22;33786;48.690;9.562;2023-05-10T02:25:24;13.70;99.90
48019;DHT22;33786;48.690;9.562;2023-05-10T02:27:53;13.70;99.90
48019;DHT22;33786;48.690;9.562;2023-05-10T02:30:20;13.70;99.90
48019;DHT22;33786;48.690;9.562;2023-05-10T02:32:48;13.70;99.90
48019;DHT22;33786;48.690;9.562;2023-05-10T02:35:15;13.70;99.90
48019;DHT22;33786;48.690;9.562;2023-05-10T02:37:42;13.70;99.90
48019;DHT22;33786;48.690;9.562;2023-05-10T02:40:10;13.70;99.90
48019;DHT22;33786;48.690;9.562;2023-05-10T02:42:38;13.70;99.90
48019;DHT22;33786;48.690;9.562;2023-05-10T02:45:10;13.70;99.90
48019;DHT22;33786;48.690;9.562;2023-05-10T02:47:38;13.60;99.90
48019;DHT22;33786;48.690;9.562;2023-05-10T02:50:05;13.70;99.90
48019;DHT22;33786;48.690;9.562;2023-05-10T02:52:36;13.60;99.90
48019;DHT22;33786;48.690;9.562;2023-05-10T02:55:05;13.50;99.90
48019;DHT22;33786;48.690;9.562;2023-05-10T02:57:33;13.50;99.90
48019;DHT22;33786;48.690;9.562;2023-05-10T03:00:00;13.40;99.90
48019;DHT22;33786;48.690;9.562;2023-05-10T03:02:27;13.30;99.90
48019;DHT22;33786;48.690;9.562;2023-05-10T03:04:56;13.30;99.90
48019;DHT22;33786;48.690;9.562;2023-05-10T03:07:23;13.30;99.90
48019;DHT22;33786;48.690;9.562;2023-05-10T03:09:50;13.20;99.90
48019;DHT22;33786;48.690;9.562;2023-05-10T03:12:23;13.20;99.90
48019;DHT22;33786;48.690;9.562;2023-05-10T03:17:25;13.10;99.90
48019;DHT22;33786;48.690;9.562;2023-05-10T03:19:56;13.10;99.90
48019;DHT22;33786;48.690;9.562;2023-05-10T03:22:24;13.00;99.90
48019;DHT22;33786;48.690;9.562;2023-05-10T03:24:55;13.00;99.90
48019;DHT22;33786;48.690;9.562;2023-05-10T03:27:23;13.00;99.90
48019;DHT22;33786;48.690;9.562;2023-05-10T03:29:52;13.00;99.90
48019;DHT22;33786;48.690;9.562;2023-05-10T03:32:19;13.00;99.90
48019;DHT22;33786;48.690;9.562;2023-05-10T03:34:46;13.00;99.90
48019;DHT22;33786;48.690;9.562;2023-05-10T03:37:13;13.00;99.90
48019;DHT22;33786;48.690;9.562;2023-05-10T03:39:40;13.00;99.90
48019;DHT22;33786;48.690;9.562;2023-05-10T03:42:06;13.00;99.90
48019;DHT22;33786;48.690;9.562;2023-05-10T03:44:33;12.90;99.90
48019;DHT22;33786;48.690;9.562;2023-05-10T03:47:00;12.90;99.90
48019;DHT22;33786;48.690;9.562;2023-05-10T03:49:26;12.90;99.90
48019;DHT22;33786;48.690;9.562;2023-05-10T03:51:53;12.90;99.90
48019;DHT22;33786;48.690;9.562;2023-05-10T03:54:20;12.90;99.90
48019;DHT22;33786;48.690;9.562;2023-05-10T03:56:47;12.90;99.90
48019;DHT22;33786;48.690;9.562;2023-05-10T03:59:14;12.90;99.90
48019;DHT22;33786;48.690;9.562;2023-05-10T04:01:41;12.90;99.90
48019;DHT22;33786;48.690;9.562;2023-05-10T04:04:08;12.90;99.90
48019;DHT22;33786;48.690;9.562;2023-05-10T04:06:34;12.90;99.90
48019;DHT22;33786;48.690;9.562;2023-05-10T04:09:01;12.90;99.90
48019;DHT22;33786;48.690;9.562;2023-05-10T04:11:30;12.90;99.90
48019;DHT22;33786;48.690;9.562;2023-05-10T04:13:57;13.00;99.90
48019;DHT22;33786;48.690;9.562;2023-05-10T04:16:23;13.00;99.90
48019;DHT22;33786;48.690;9.562;2023-05-10T04:18:50;13.10;99.90
48019;DHT22;33786;48.690;9.562;2023-05-10T04:21:17;13.10;99.90
48019;DHT22;33786;48.690;9.562;2023-05-10T04:23:44;13.20;99.90
48019;DHT22;33786;48.690;9.562;2023-05-10T04:26:10;13.20;99.90
48019;DHT22;33786;48.690;9.562;2023-05-10T04:28:37;13.30;99.90
48019;DHT22;33786;48.690;9.562;2023-05-10T04:31:04;13.30;99.90
48019;DHT22;33786;48.690;9.562;2023-05-10T04:33:31;13.30;99.90
48019;DHT22;33786;48.690;9.562;2023-05-10T04:35:58;13.30;99.90
48019;DHT22;33786;48.690;9.562;2023-05-10T04:38:25;13.30;99.90
48019;DHT22;33786;48.690;9.562;2023-05-10T04:40:52;13.30;99.90
48019;DHT22;33786;48.690;9.562;2023-05-10T04:43:19;13.40;99.90
48019;DHT22;33786;48.690;9.562;2023-05-10T04:45:45;13.40;99.90
48019;DHT22;33786;48.690;9.562;2023-05-10T04:48:12;13.50;99.90
48019;DHT22;33786;48.690;9.562;2023-05-10T04:50:39;13.60;99.90
48019;DHT22;33786;48.690;9.562;2023-05-10T04:53:06;13.70;99.90
48019;DHT22;33786;48.690;9.562;2023-05-10T04:55:32;13.60;99.90
48019;DHT22;33786;48.690;9.562;2023-05-10T04:57:59;13.40;99.90
48019;DHT22;33786;48.690;9.562;2023-05-10T05:00:27;13.50;99.90
48019;DHT22;33786;48.690;9.562;2023-05-10T05:02:53;13.60;99.90
48019;DHT22;33786;48.690;9.562;2023-05-10T05:05:20;13.70;99.90
48019;DHT22;33786;48.690;9.562;2023-05-10T05:07:47;14.00;99.90
48019;DHT22;33786;48.690;9.562;2023-05-10T05:10:13;14.00;99.90
48019;DHT22;33786;48.690;9.562;2023-05-10T05:12:41;14.10;99.90
48019;DHT22;33786;48.690;9.562;2023-05-10T05:15:07;14.10;99.90
48019;DHT22;33786;48.690;9.562;2023-05-10T05:17:36;14.20;99.90
48019;DHT22;33786;48.690;9.562;2023-05-10T05:20:02;14.20;99.90
48019;DHT22;33786;48.690;9.562;2023-05-10T05:22:29;14.20;99.90
48019;DHT22;33786;48.690;9.562;2023-05-10T05:24:57;14.10;99.90
48019;DHT22;33786;48.690;9.562;2023-05-10T05:27:24;14.00;99.90
48019;DHT22;33786;48.690;9.562;2023-05-10T05:29:53;14.10;99.90
48019;DHT22;33786;48.690;9.562;2023-05-10T05:32:19;14.10;99.90
48019;DHT22;33786;48.690;9.562;2023-05-10T05:34:46;14.10;99.90
48019;DHT22;33786;48.690;9.562;2023-05-10T05:37:13;14.10;99.90
48019;DHT22;33786;48.690;9.562;2023-05-10T05:39:40;14.10;99.90
48019;DHT22;33786;48.690;9.562;2023-05-10T05:42:08;14.20;99.90
48019;DHT22;33786;48.690;9.562;2023-05-10T05:44:35;14.20;99.90
48019;DHT22;33786;48.690;9.562;2023-05-10T05:47:01;14.20;99.90
48019;DHT22;33786;48.690;9.562;2023-05-10T05:49:28;14.20;99.90
48019;DHT22;33786;48.690;9.562;2023-05-10T05:51:58;14.10;99.90
48019;DHT22;33786;48.690;9.562;2023-05-10T05:54:25;14.30;99.90
48019;DHT22;33786;48.690;9.562;2023-05-10T05:56:53;14.40;99.90
48019;DHT22;33786;48.690;9.562;2023-05-10T05:59:20;14.50;99.90
48019;DHT22;33786;48.690;9.562;2023-05-10T06:01:47;14.50;99.90
48019;DHT22;33786;48.690;9.562;2023-05-10T06:04:14;14.60;99.90
48019;DHT22;33786;48.690;9.562;2023-05-10T06:06:40;14.50;99.90
48019;DHT22;33786;48.690;9.562;2023-05-10T06:09:07;14.50;99.90
48019;DHT22;33786;48.690;9.562;2023-05-10T06:11:35;14.40;99.90
48019;DHT22;33786;48.690;9.562;2023-05-10T06:14:03;14.20;99.90
48019;DHT22;33786;48.690;9.562;2023-05-10T06:16:34;14.20;99.90
48019;DHT22;33786;48.690;9.562;2023-05-10T06:19:01;14.30;99.90
48019;DHT22;33786;48.690;9.562;2023-05-10T06:21:28;14.30;99.90
48019;DHT22;33786;48.690;9.562;2023-05-10T06:23:55;14.40;99.90
48019;DHT22;33786;48.690;9.562;2023-05-10T06:26:22;14.50;99.90
48019;DHT22;33786;48.690;9.562;2023-05-10T06:28:48;14.50;99.90
48019;DHT22;33786;48.690;9.562;2023-05-10T06:31:15;14.60;99.90
48019;DHT22;33786;48.690;9.562;2023-05-10T06:33:42;14.60;99.90
48019;DHT22;33786;48.690;9.562;2023-05-10T06:36:09;14.50;99.90
48019;DHT22;33786;48.690;9.562;2023-05-10T06:38:36;14.40;99.90
48019;DHT22;33786;48.690;9.562;2023-05-10T06:41:02;14.40;99.90
48019;DHT22;33786;48.690;9.562;2023-05-10T06:43:29;14.40;99.90
48019;DHT22;33786;48.690;9.562;2023-05-10T06:45:56;14.40;99.90
48019;DHT22;33786;48.690;9.562;2023-05-10T06:48:23;14.50;99.90
48019;DHT22;33786;48.690;9.562;2023-05-10T06:50:50;14.40;99.90
48019;DHT22;33786;48.690;9.562;2023-05-10T06:53:17;14.40;99.90
48019;DHT22;33786;48.690;9.562;2023-05-10T06:55:44;14.60;99.90
48019;DHT22;33786;48.690;9.562;2023-05-10T06:58:10;14.70;99.90
48019;DHT22;33786;48.690;9.562;2023-05-10T07:00:37;14.80;99.90
48019;DHT22;33786;48.690;9.562;2023-05-10T07:03:07;14.90;99.90
48019;DHT22;33786;48.690;9.562;2023-05-10T07:05:33;14.60;99.90
48019;DHT22;33786;48.690;9.562;2023-05-10T07:08:01;14.80;99.90
48019;DHT22;33786;48.690;9.562;2023-05-10T07:10:28;14.90;99.90
48019;DHT22;33786;48.690;9.562;2023-05-10T07:12:54;15.20;99.90
48019;DHT22;33786;48.690;9.562;2023-05-10T07:15:21;15.40;99.90
48019;DHT22;33786;48.690;9.562;2023-05-10T07:17:48;15.50;99.90
48019;DHT22;33786;48.690;9.562;2023-05-10T07:20:15;15.50;99.90
48019;DHT22;33786;48.690;9.562;2023-05-10T07:22:42;15.40;99.90
48019;DHT22;33786;48.690;9.562;2023-05-10T07:25:08;15.30;99.90
48019;DHT22;33786;48.690;9.562;2023-05-10T07:27:35;15.10;99.90
48019;DHT22;33786;48.690;9.562;2023-05-10T07:30:02;15.30;99.90
48019;DHT22;33786;48.690;9.562;2023-05-10T07:32:29;15.20;99.90
48019;DHT22;33786;48.690;9.562;2023-05-10T07:34:56;15.00;99.90
48019;DHT22;33786;48.690;9.562;2023-05-10T07:37:22;15.10;99.90
48019;DHT22;33786;48.690;9.562;2023-05-10T07:39:49;15.20;99.90
48019;DHT22;33786;48.690;9.562;2023-05-10T07:42:16;15.30;99.90
48019;DHT22;33786;48.690;9.562;2023-05-10T07:44:42;15.30;99.90
48019;DHT22;33786;48.690;9.562;2023-05-10T07:47:09;15.20;99.90
48019;DHT22;33786;48.690;9.562;2023-05-10T07:49:36;15.20;99.90
48019;DHT22;33786;48.690;9.562;2023-05-10T07:52:03;15.20;99.90
48019;DHT22;33786;48.690;9.562;2023-05-10T07:54:29;15.20;99.90
48019;DHT22;33786;48.690;9.562;2023-05-10T07:56:56;15.10;99.90
48019;DHT22;33786;48.690;9.562;2023-05-10T07:59:23;15.00;99.90
48019;DHT22;33786;48.690;9.562;2023-05-10T08:01:50;15.10;99.90
48019;DHT22;33786;48.690;9.562;2023-05-10T08:04:16;15.00;99.90
48019;DHT22;33786;48.690;9.562;2023-05-10T08:06:43;15.20;99.90
48019;DHT22;33786;48.690;9.562;2023-05-10T08:09:10;15.20;99.90
48019;DHT22;33786;48.690;9.562;2023-05-10T08:11:37;15.20;99.90
48019;DHT22;33786;48.690;9.562;2023-05-10T08:14:04;15.30;99.90
48019;DHT22;33786;48.690;9.562;2023-05-10T08:16:30;15.60;99.90
48019;DHT22;33786;48.690;9.562;2023-05-10T08:18:59;15.80;99.90
48019;DHT22;33786;48.690;9.562;2023-05-10T08:21:25;16.10;99.90
48019;DHT22;33786;48.690;9.562;2023-05-10T08:23:52;16.20;99.90
48019;DHT22;33786;48.690;9.562;2023-05-10T08:26:19;16.40;99.90
48019;DHT22;33786;48.690;9.562;2023-05-10T08:28:47;16.70;99.90
48019;DHT22;33786;48.690;9.562;2023-05-10T08:31:14;16.80;99.90
48019;DHT22;33786;48.690;9.562;2023-05-10T08:33:42;17.10;99.90
48019;DHT22;33786;48.690;9.562;2023-05-10T08:36:10;17.30;99.90
48019;DHT22;33786;48.690;9.562;2023-05-10T08:38:37;17.40;99.90
48019;DHT22;33786;48.690;9.562;2023-05-10T08:41:04;17.20;99.90
48019;DHT22;33786;48.690;9.562;2023-05-10T08:43:31;17.10;99.90
48019;DHT22;33786;48.690;9.562;2023-05-10T08:46:01;17.20;99.90
48019;DHT22;33786;48.690;9.562;2023-05-10T08:48:31;17.10;99.90
48019;DHT22;33786;48.690;9.562;2023-05-10T08:51:00;17.30;99.90
48019;DHT22;33786;48.690;9.562;2023-05-10T08:53:27;17.20;99.90
48019;DHT22;33786;48.690;9.562;2023-05-10T08:55:55;17.40;99.90
48019;DHT22;33786;48.690;9.562;2023-05-10T08:58:22;17.40;99.90
48019;DHT22;33786;48.690;9.562;2023-05-10T09:00:49;17.50;99.90
48019;DHT22;33786;48.690;9.562;2023-05-10T09:03:17;17.70;99.90
48019;DHT22;33786;48.690;9.562;2023-05-10T09:05:44;17.40;99.90
48019;DHT22;33786;48.690;9.562;2023-05-10T09:08:11;17.10;99.90
48019;DHT22;33786;48.690;9.562;2023-05-10T09:10:39;17.30;99.90
48019;DHT22;33786;48.690;9.562;2023-05-10T09:13:06;17.30;99.90
48019;DHT22;33786;48.690;9.562;2023-05-10T09:15:34;17.30;99.90
48019;DHT22;33786;48.690;9.562;2023-05-10T09:18:01;17.80;99.90
48019;DHT22;33786;48.690;9.562;2023-05-10T09:20:28;17.80;99.90
48019;DHT22;33786;48.690;9.562;2023-05-10T09:22:55;17.40;99.90
48019;DHT22;33786;48.690;9.562;2023-05-10T09:25:22;17.30;99.90
48019;DHT22;33786;48.690;9.562;2023-05-10T09:27:49;17.40;99.90
48019;DHT22;33786;48.690;9.562;2023-05-10T09:30:17;17.60;99.90
48019;DHT22;33786;48.690;9.562;2023-05-10T09:32:45;18.10;99.90
48019;DHT22;33786;48.690;9.562;2023-05-10T09:35:13;18.10;99.90
48019;DHT22;33786;48.690;9.562;2023-05-10T09:37:53;18.10;99.90
48019;DHT22;33786;48.690;9.562;2023-05-10T09:40:22;17.80;99.90
48019;DHT22;33786;48.690;9.562;2023-05-10T09:42:53;17.90;99.90
48019;DHT22;33786;48.690;9.562;2023-05-10T09:45:21;17.90;99.90
48019;DHT22;33786;48.690;9.562;2023-05-10T09:47:48;17.70;99.90
48019;DHT22;33786;48.690;9.562;2023-05-10T09:50:15;17.80;99.90
48019;DHT22;33786;48.690;9.562;2023-05-10T09:53:00;17.50;99.90
48019;DHT22;33786;48.690;9.562;2023-05-10T09:58:06;17.30;99.90
48019;DHT22;33786;48.690;9.562;2023-05-10T10:00:38;17.60;99.90
48019;DHT22;33786;48.690;9.562;2023-05-10T10:03:05;17.50;99.90
48019;DHT22;33786;48.690;9.562;2023-05-10T10:05:32;17.80;99.90
48019;DHT22;33786;48.690;9.562;2023-05-10T10:08:00;18.20;99.90
48019;DHT22;33786;48.690;9.562;2023-05-10T10:10:27;18.20;99.90
48019;DHT22;33786;48.690;9.562;2023-05-10T10:12:54;18.00;99.90
48019;DHT22;33786;48.690;9.562;2023-05-10T10:15:21;18.00;99.90
48019;DHT22;33786;48.690;9.562;2023-05-10T10:17:49;18.00;99.90
48019;DHT22;33786;48.690;9.562;2023-05-10T10:20:17;18.00;99.90
48019;DHT22;33786;48.690;9.562;2023-05-10T10:22:44;17.90;99.90
48019;DHT22;33786;48.690;9.562;2023-05-10T10:25:12;17.80;99.90
48019;DHT22;33786;48.690;9.562;2023-05-10T10:30:25;17.50;99.90
48019;DHT22;33786;48.690;9.562;2023-05-10T10:35:45;17.00;99.90
48019;DHT22;33786;48.690;9.562;2023-05-10T10:38:13;16.70;99.90
48019;DHT22;33786;48.690;9.562;2023-05-10T10:40:40;16.70;99.90
48019;DHT22;33786;48.690;9.562;2023-05-10T10:43:25;16.40;99.90
48019;DHT22;33786;48.690;9.562;2023-05-10T10:48:35;16.00;99.90
48019;DHT22;33786;48.690;9.562;2023-05-10T10:51:02;16.20;99.90
48019;DHT22;33786;48.690;9.562;2023-05-10T10:53:28;16.30;99.90
48019;DHT22;33786;48.690;9.562;2023-05-10T10:56:05;16.50;99.90
48019;DHT22;33786;48.690;9.562;2023-05-10T10:58:39;16.50;99.90
48019;DHT22;33786;48.690;9.562;2023-05-10T11:01:10;16.70;99.90
48019;DHT22;33786;48.690;9.562;2023-05-10T11:03:37;17.00;99.90
48019;DHT22;33786;48.690;9.562;2023-05-10T11:06:04;17.10;99.90
48019;DHT22;33786;48.690;9.562;2023-05-10T11:08:32;17.30;99.90
48019;DHT22;33786;48.690;9.562;2023-05-10T11:13:48;17.50;99.90
48019;DHT22;33786;48.690;9.562;2023-05-10T11:19:01;18.00;99.90
48019;DHT22;33786;48.690;9.562;2023-05-10T11:21:29;18.00;99.90
48019;DHT22;33786;48.690;9.562;2023-05-10T11:23:57;18.50;99.90
48019;DHT22;33786;48.690;9.562;2023-05-10T11:26:24;18.80;99.90
48019;DHT22;33786;48.690;9.562;2023-05-10T11:28:53;19.00;99.90
48019;DHT22;33786;48.690;9.562;2023-05-10T11:31:24;19.40;99.90
48019;DHT22;33786;48.690;9.562;2023-05-10T11:33:54;19.70;99.90
48019;DHT22;33786;48.690;9.562;2023-05-10T11:36:22;19.40;99.90
48019;DHT22;33786;48.690;9.562;2023-05-10T11:38:49;19.60;99.90
48019;DHT22;33786;48.690;9.562;2023-05-10T11:41:17;19.60;99.90
48019;DHT22;33786;48.690;9.562;2023-05-10T11:43:45;19.60;99.90
48019;DHT22;33786;48.690;9.562;2023-05-10T11:46:13;18.90;99.90
48019;DHT22;33786;48.690;9.562;2023-05-10T11:48:40;18.60;99.90
48019;DHT22;33786;48.690;9.562;2023-05-10T11:51:07;17.80;99.90
48019;DHT22;33786;48.690;9.562;2023-05-10T11:53:34;17.50;99.90
48019;DHT22;33786;48.690;9.562;2023-05-10T11:56:05;17.30;99.90
48019;DHT22;33786;48.690;9.562;2023-05-10T11:58:32;16.80;99.90
48019;DHT22;33786;48.690;9.562;2023-05-10T12:00:58;16.00;99.90
48019;DHT22;33786;48.690;9.562;2023-05-10T12:03:29;14.90;99.90
48019;DHT22;33786;48.690;9.562;2023-05-10T12:05:57;14.30;99.90
48019;DHT22;33786;48.690;9.562;2023-05-10T12:08:24;13.60;99.90
48019;DHT22;33786;48.690;9.562;2023-05-10T12:10:52;13.50;99.90
48019;DHT22;33786;48.690;9.562;2023-05-10T12:13:19;13.40;99.90
48019;DHT22;33786;48.690;9.562;2023-05-10T12:15:47;13.40;99.90
48019;DHT22;33786;48.690;9.562;2023-05-10T12:18:14;13.20;99.90
48019;DHT22;33786;48.690;9.562;2023-05-10T12:20:41;13.10;99.90
48019;DHT22;33786;48.690;9.562;2023-05-10T12:23:08;13.00;99.90
48019;DHT22;33786;48.690;9.562;2023-05-10T12:25:36;13.00;99.90
48019;DHT22;33786;48.690;9.562;2023-05-10T12:28:04;12.90;99.90
48019;DHT22;33786;48.690;9.562;2023-05-10T12:30:32;13.00;99.90
48019;DHT22;33786;48.690;9.562;2023-05-10T12:33:02;12.90;99.90
48019;DHT22;33786;48.690;9.562;2023-05-10T12:35:38;13.10;99.90
48019;DHT22;33786;48.690;9.562;2023-05-10T12:38:29;13.40;99.90
48019;DHT22;33786;48.690;9.562;2023-05-10T12:41:00;13.50;99.90
48019;DHT22;33786;48.690;9.562;2023-05-10T12:43:28;13.60;99.90
48019;DHT22;33786;48.690;9.562;2023-05-10T12:45:54;13.70;99.90
48019;DHT22;33786;48.690;9.562;2023-05-10T12:48:21;13.50;99.90
48019;DHT22;33786;48.690;9.562;2023-05-10T12:50:48;13.70;99.90
48019;DHT22;33786;48.690;9.562;2023-05-10T12:53:15;13.60;99.90
48019;DHT22;33786;48.690;9.562;2023-05-10T12:55:42;13.80;99.90
48019;DHT22;33786;48.690;9.562;2023-05-10T12:58:09;13.90;99.90
48019;DHT22;33786;48.690;9.562;2023-05-10T13:00:39;13.90;99.90
48019;DHT22;33786;48.690;9.562;2023-05-10T13:03:05;14.00;99.90
48019;DHT22;33786;48.690;9.562;2023-05-10T13:05:32;14.20;99.90
48019;DHT22;33786;48.690;9.562;2023-05-10T13:07:59;14.40;99.90
48019;DHT22;33786;48.690;9.562;2023-05-10T13:10:26;14.50;99.90
48019;DHT22;33786;48.690;9.562;2023-05-10T13:12:53;14.70;99.90
48019;DHT22;33786;48.690;9.562;2023-05-10T13:15:19;14.70;99.90
48019;DHT22;33786;48.690;9.562;2023-05-10T13:17:46;15.00;99.90
48019;DHT22;33786;48.690;9.562;2023-05-10T13:20:13;15.30;99.90
48019;DHT22;33786;48.690;9.562;2023-05-10T13:22:42;15.40;99.90
48019;DHT22;33786;48.690;9.562;2023-05-10T13:25:09;15.40;99.90
48019;DHT22;33786;48.690;9.562;2023-05-10T13:27:36;15.60;99.90
48019;DHT22;33786;48.690;9.562;2023-05-10T13:30:03;15.60;99.90
48019;DHT22;33786;48.690;9.562;2023-05-10T13:32:30;15.40;99.90
48019;DHT22;33786;48.690;9.562;2023-05-10T13:34:57;15.40;99.90
48019;DHT22;33786;48.690;9.562;2023-05-10T13:37:23;15.70;99.90
48019;DHT22;33786;48.690;9.562;2023-05-10T13:39:50;16.00;99.90
48019;DHT22;33786;48.690;9.562;2023-05-10T13:42:17;16.10;99.90
48019;DHT22;33786;48.690;9.562;2023-05-10T13:44:44;16.00;99.90
48019;DHT22;33786;48.690;9.562;2023-05-10T13:47:10;16.10;99.90
48019;DHT22;33786;48.690;9.562;2023-05-10T13:49:37;16.30;99.90
48019;DHT22;33786;48.690;9.562;2023-05-10T13:52:04;16.50;99.90
48019;DHT22;33786;48.690;9.562;2023-05-10T13:54:33;16.50;99.90
48019;DHT22;33786;48.690;9.562;2023-05-10T13:57:00;16.70;99.90
48019;DHT22;33786;48.690;9.562;2023-05-10T13:59:28;16.90;99.90
48019;DHT22;33786;48.690;9.562;2023-05-10T14:01:55;17.10;99.90
48019;DHT22;33786;48.690;9.562;2023-05-10T14:04:22;17.20;99.90
48019;DHT22;33786;48.690;9.562;2023-05-10T14:06:48;17.30;99.90
48019;DHT22;33786;48.690;9.562;2023-05-10T14:09:15;17.30;99.90
48019;DHT22;33786;48.690;9.562;2023-05-10T14:11:42;17.20;99.90
48019;DHT22;33786;48.690;9.562;2023-05-10T14:14:09;17.30;99.90
48019;DHT22;33786;48.690;9.562;2023-05-10T14:16:36;17.40;99.90
48019;DHT22;33786;48.690;9.562;2023-05-10T14:19:03;17.50;99.90
48019;DHT22;33786;48.690;9.562;2023-05-10T14:21:30;17.60;99.90
48019;DHT22;33786;48.690;9.562;2023-05-10T14:23:57;17.60;99.90
48019;DHT22;33786;48.690;9.562;2023-05-10T14:26:23;17.60;99.90
48019;DHT22;33786;48.690;9.562;2023-05-10T14:28:50;17.60;99.90
48019;DHT22;33786;48.690;9.562;2023-05-10T14:31:18;17.50;99.90
48019;DHT22;33786;48.690;9.562;2023-05-10T14:33:46;17.60;99.90
48019;DHT22;33786;48.690;9.562;2023-05-10T14:36:13;17.60;99.90
48019;DHT22;33786;48.690;9.562;2023-05-10T14:38:40;17.40;99.90
48019;DHT22;33786;48.690;9.562;2023-05-10T14:41:07;17.40;99.90
48019;DHT22;33786;48.690;9.562;2023-05-10T14:43:37;17.40;99.90
48019;DHT22;33786;48.690;9.562;2023-05-10T14:46:03;17.50;99.90
48019;DHT22;33786;48.690;9.562;2023-05-10T14:48:31;17.50;99.90
48019;DHT22;33786;48.690;9.562;2023-05-10T14:50:57;17.50;99.90
48019;DHT22;33786;48.690;9.562;2023-05-10T14:53:24;17.60;99.90
48019;DHT22;33786;48.690;9.562;2023-05-10T14:55:51;17.60;99.90
48019;DHT22;33786;48.690;9.562;2023-05-10T14:58:17;17.70;99.90
48019;DHT22;33786;48.690;9.562;2023-05-10T15:00:44;17.80;99.90
48019;DHT22;33786;48.690;9.562;2023-05-10T15:03:12;17.80;99.90
48019;DHT22;33786;48.690;9.562;2023-05-10T15:05:39;17.80;99.90
48019;DHT22;33786;48.690;9.562;2023-05-10T15:08:06;17.80;99.90
48019;DHT22;33786;48.690;9.562;2023-05-10T15:10:33;17.80;99.90
48019;DHT22;33786;48.690;9.562;2023-05-10T15:13:00;17.90;99.90
48019;DHT22;33786;48.690;9.562;2023-05-10T15:15:27;17.80;99.90
48019;DHT22;33786;48.690;9.562;2023-05-10T15:17:54;17.70;99.90
48019;DHT22;33786;48.690;9.562;2023-05-10T15:20:21;17.80;99.90
48019;DHT22;33786;48.690;9.562;2023-05-10T15:22:47;17.90;99.90
48019;DHT22;33786;48.690;9.562;2023-05-10T15:25:14;17.90;99.90
48019;DHT22;33786;48.690;9.562;2023-05-10T15:27:42;17.90;99.90
48019;DHT22;33786;48.690;9.562;2023-05-10T15:30:10;17.80;99.90
48019;DHT22;33786;48.690;9.562;2023-05-10T15:32:37;17.80;99.90
48019;DHT22;33786;48.690;9.562;2023-05-10T15:35:06;17.70;99.90
48019;DHT22;33786;48.690;9.562;2023-05-10T15:37:33;17.60;99.90
48019;DHT22;33786;48.690;9.562;2023-05-10T15:40:00;17.60;99.90
48019;DHT22;33786;48.690;9.562;2023-05-10T15:42:30;17.80;99.90
48019;DHT22;33786;48.690;9.562;2023-05-10T15:44:58;17.70;99.90
48019;DHT22;33786;48.690;9.562;2023-05-10T15:47:25;17.70;99.90
48019;DHT22;33786;48.690;9.562;2023-05-10T15:49:52;17.60;99.90
48019;DHT22;33786;48.690;9.562;2023-05-10T15:52:19;17.50;99.90
48019;DHT22;33786;48.690;9.562;2023-05-10T15:54:46;17.40;99.90
48019;DHT22;33786;48.690;9.562;2023-05-10T15:57:13;17.30;99.90
48019;DHT22;33786;48.690;9.562;2023-05-10T15:59:40;17.20;99.90
48019;DHT22;33786;48.690;9.562;2023-05-10T16:02:08;17.20;99.90